sensor_id;sensor_type;location;lat;lon;timestamp;temperature;humidity
61400;DHT22;47269;48.182;-1.946;2023-06-26T06:00:33;15.60;99.90
61400;DHT22;47269;48.182;-1.946;2023-06-26T06:02:58;15.80;99.90
61400;DHT22;47269;48.182;-1.946;2023-06-26T06:05:24;15.70;99.90
61400;DHT22;47269;48.182;-1.946;2023-06-26T06:07:50;15.80;99.90
61400;DHT22;47269;48.182;-1.946;2023-06-26T06:10:16;15.80;99.90
61400;DHT22;47269;48.182;-1.946;2023-06-26T06:12:42;15.80;99.90
61400;DHT22;47269;48.182;-1.946;2023-06-26T06:15:08;16.10;99.90
61400;DHT22;47269;48.182;-1.946;2023-06-26T06:17:33;16.00;99.90
61400;DHT22;47269;48.182;-1.946;2023-06-26T06:19:59;16.10;99.90
61400;DHT22;47269;48.182;-1.946;2023-06-26T06:22:25;16.20;99.90
61400;DHT22;47269;48.182;-1.946;2023-06-26T06:24:51;16.30;99.90
61400;DHT22;47269;48.182;-1.946;2023-06-26T06:27:17;16.30;99.90
61400;DHT22;47269;48.182;-1.946;2023-06-26T06:29:43;16.40;99.90
61400;DHT22;47269;48.182;-1.946;2023-06-26T06:32:09;16.60;99.90
61400;DHT22;47269;48.182;-1.946;2023-06-26T06:34:34;16.70;99.90
61400;DHT22;47269;48.182;-1.946;2023-06-26T06:37:00;16.60;99.90
61400;DHT22;47269;48.182;-1.946;2023-06-26T06:39:26;16.70;99.90
61400;DHT22;47269;48.182;-1.946;2023-06-26T06:41:51;16.60;99.90
61400;DHT22;47269;48.182;-1.946;2023-06-26T06:44:17;16.70;99.90
61400;DHT22;47269;48.182;-1.946;2023-06-26T06:46:43;16.70;99.90
61400;DHT22;47269;48.182;-1.946;2023-06-26T06:49:08;17.00;99.90
61400;DHT22;47269;48.182;-1.946;2023-06-26T06:51:34;17.10;99.90
61400;DHT22;47269;48.182;-1.946;2023-06-26T06:54:00;17.10;99.90
61400;DHT22;47269;48.182;-1.946;2023-06-26T06:56:26;17.10;99.90
61400;DHT22;47269;48.182;-1.946;2023-06-26T06:58:52;17.20;99.90
61400;DHT22;47269;48.182;-1.946;2023-06-26T07:01:17;17.40;99.90
61400;DHT22;47269;48.182;-1.946;2023-06-26T07:03:43;17.40;99.90
61400;DHT22;47269;48.182;-1.946;2023-06-26T07:06:09;17.60;99.90
61400;DHT22;47269;48.182;-1.946;2023-06-26T07:08:34;17.60;99.90
61400;DHT22;47269;48.182;-1.946;2023-06-26T07:11:00;17.70;99.90
61400;DHT22;47269;48.182;-1.946;2023-06-26T07:13:26;17.80;99.90
61400;DHT22;47269;48.182;-1.946;2023-06-26T07:15:52;17.80;99.90
61400;DHT22;47269;48.182;-1.946;2023-06-26T07:18:18;17.90;99.90
61400;DHT22;47269;48.182;-1.946;2023-06-26T07:20:43;17.90;99.90
61400;DHT22;47269;48.182;-1.946;2023-06-26T07:23:09;17.80;99.90
61400;DHT22;47269;48.182;-1.946;2023-06-26T07:25:35;18.10;99.90
61400;DHT22;47269;48.182;-1.946;2023-06-26T07:28:01;18.00;99.90
61400;DHT22;47269;48.182;-1.946;2023-06-26T07:30:26;18.20;99.90
61400;DHT22;47269;48.182;-1.946;2023-06-26T07:32:58;18.40;99.90
61400;DHT22;47269;48.182;-1.946;2023-06-26T07:35:26;18.50;99.90
61400;DHT22;47269;48.182;-1.946;2023-06-26T07:37:53;18.40;99.90
61400;DHT22;47269;48.182;-1.946;2023-06-26T07:40:18;18.60;99.90
61400;DHT22;47269;48.182;-1.946;2023-06-26T07:42:44;18.70;99.90
61400;DHT22;47269;48.182;-1.946;2023-06-26T07:45:10;18.70;99.90
61400;DHT22;47269;48.182;-1.946;2023-06-26T07:47:38;18.80;99.90
61400;DHT22;47269;48.182;-1.946;2023-06-26T07:50:04;19.20;99.90
61400;DHT22;47269;48.182;-1.946;2023-06-26T07:52:32;19.10;99.90
61400;DHT22;47269;48.182;-1.946;2023-06-26T07:54:58;19.20;99.90
61400;DHT22;47269;48.182;-1.946;2023-06-26T07:57:24;19.30;99.90
61400;DHT22;47269;48.182;-1.946;2023-06-26T07:59:50;19.70;99.90
61400;DHT22;47269;48.182;-1.946;2023-06-26T08:02:16;19.90;99.90
61400;DHT22;47269;48.182;-1.946;2023-06-26T08:04:43;19.90;99.90
61400;DHT22;47269;48.182;-1.946;2023-06-26T08:07:08;20.10;99.90
61400;DHT22;47269;48.182;-1.946;2023-06-26T08:09:34;20.10;99.90
61400;DHT22;47269;48.182;-1.946;2023-06-26T08:12:01;19.80;99.90
61400;DHT22;47269;48.182;-1.946;2023-06-26T08:14:27;20.00;99.90
61400;DHT22;47269;48.182;-1.946;2023-06-26T08:16:53;20.60;99.90
61400;DHT22;47269;48.182;-1.946;2023-06-26T08:19:19;20.00;99.90
61400;DHT22;47269;48.182;-1.946;2023-06-26T08:21:45;19.40;99.90
61400;DHT22;47269;48.182;-1.946;2023-06-26T08:24:12;19.60;99.90
61400;DHT22;47269;48.182;-1.946;2023-06-26T08:26:47;20.00;99.90
61400;DHT22;47269;48.182;-1.946;2023-06-26T08:29:13;20.20;99.90
61400;DHT22;47269;48.182;-1.946;2023-06-26T08:31:40;20.70;99.90
61400;DHT22;47269;48.182;-1.946;2023-06-26T08:34:07;20.50;99.90
61400;DHT22;47269;48.182;-1.946;2023-06-26T08:36:32;20.60;99.90
61400;DHT22;47269;48.182;-1.946;2023-06-26T08:38:58;20.60;99.90
61400;DHT22;47269;48.182;-1.946;2023-06-26T08:41:24;20.70;99.90
61400;DHT22;47269;48.182;-1.946;2023-06-26T08:43:50;20.90;99.90
61400;DHT22;47269;48.182;-1.946;2023-06-26T08:46:18;21.20;99.90
61400;DHT22;47269;48.182;-1.946;2023-06-26T08:48:51;21.10;99.90
61400;DHT22;47269;48.182;-1.946;2023-06-26T08:51:22;21.30;99.90
61400;DHT22;47269;48.182;-1.946;2023-06-26T08:56:17;21.40;99.90
61400;DHT22;47269;48.182;-1.946;2023-06-26T08:58:44;21.40;99.90
61400;DHT22;47269;48.182;-1.946;2023-06-26T09:01:11;21.50;99.90
61400;DHT22;47269;48.182;-1.946;2023-06-26T09:03:38;21.40;99.90
61400;DHT22;47269;48.182;-1.946;2023-06-26T09:06:03;21.60;99.90
61400;DHT22;47269;48.182;-1.946;2023-06-26T09:08:29;22.20;99.90
61400;DHT22;47269;48.182;-1.946;2023-06-26T09:10:55;22.20;99.90
61400;DHT22;47269;48.182;-1.946;2023-06-26T09:13:21;22.20;99.90
61400;DHT22;47269;48.182;-1.946;2023-06-26T09:15:47;22.70;99.90
61400;DHT22;47269;48.182;-1.946;2023-06-26T09:18:13;22.50;99.90
61400;DHT22;47269;48.182;-1.946;2023-06-26T09:20:38;21.90;99.90
61400;DHT22;47269;48.182;-1.946;2023-06-26T09:23:04;21.70;99.90
61400;DHT22;47269;48.182;-1.946;2023-06-26T09:25:31;21.10;99.90
61400;DHT22;47269;48.182;-1.946;2023-06-26T09:27:57;21.00;99.90
61400;DHT22;47269;48.182;-1.946;2023-06-26T09:30:23;21.00;99.90
61400;DHT22;47269;48.182;-1.946;2023-06-26T09:32:48;21.60;99.90
61400;DHT22;47269;48.182;-1.946;2023-06-26T09:35:16;21.80;99.90
61400;DHT22;47269;48.182;-1.946;2023-06-26T09:37:42;22.40;99.90
61400;DHT22;47269;48.182;-1.946;2023-06-26T09:40:09;22.40;99.90
61400;DHT22;47269;48.182;-1.946;2023-06-26T09:42:35;23.00;99.90
61400;DHT22;47269;48.182;-1.946;2023-06-26T09:45:02;23.20;99.90
61400;DHT22;47269;48.182;-1.946;2023-06-26T09:47:30;23.30;99.90
61400;DHT22;47269;48.182;-1.946;2023-06-26T09:49:57;23.20;99.90
61400;DHT22;47269;48.182;-1.946;2023-06-26T09:52:27;22.80;99.90
61400;DHT22;47269;48.182;-1.946;2023-06-26T09:55:10;22.60;99.90
61400;DHT22;47269;48.182;-1.946;2023-06-26T09:57:37;22.10;99.90
61400;DHT22;47269;48.182;-1.946;2023-06-26T10:00:03;21.90;99.90
61400;DHT22;47269;48.182;-1.946;2023-06-26T10:02:30;22.10;99.90
61400;DHT22;47269;48.182;-1.946;2023-06-26T10:04:55;22.60;99.90
61400;DHT22;47269;48.182;-1.946;2023-06-26T10:07:21;23.10;99.90
61400;DHT22;47269;48.182;-1.946;2023-06-26T10:09:50;23.30;99.90
61400;DHT22;47269;48.182;-1.946;2023-06-26T10:12:20;22.60;99.90
61400;DHT22;47269;48.182;-1.946;2023-06-26T10:14:48;22.20;99.90
61400;DHT22;47269;48.182;-1.946;2023-06-26T10:17:17;22.40;99.90
61400;DHT22;47269;48.182;-1.946;2023-06-26T10:19:44;23.00;99.90
61400;DHT22;47269;48.182;-1.946;2023-06-26T10:22:13;23.20;99.90
61400;DHT22;47269;48.182;-1.946;2023-06-26T10:24:40;23.40;99.90
61400;DHT22;47269;48.182;-1.946;2023-06-26T10:27:28;22.80;99.90
61400;DHT22;47269;48.182;-1.946;2023-06-26T10:29:56;22.00;99.90
61400;DHT22;47269;48.182;-1.946;2023-06-26T10:32:25;22.10;99.90
61400;DHT22;47269;48.182;-1.946;2023-06-26T10:34:52;21.70;99.90
61400;DHT22;47269;48.182;-1.946;2023-06-26T10:37:18;21.90;99.90
61400;DHT22;47269;48.182;-1.946;2023-06-26T10:39:51;21.60;99.90
61400;DHT22;47269;48.182;-1.946;2023-06-26T10:42:28;21.80;99.90
61400;DHT22;47269;48.182;-1.946;2023-06-26T10:44:53;22.30;99.90
61400;DHT22;47269;48.182;-1.946;2023-06-26T10:47:29;23.20;99.90
61400;DHT22;47269;48.182;-1.946;2023-06-26T10:50:17;23.10;99.90
61400;DHT22;47269;48.182;-1.946;2023-06-26T10:52:44;23.20;99.90
61400;DHT22;47269;48.182;-1.946;2023-06-26T10:55:09;23.30;99.90
61400;DHT22;47269;48.182;-1.946;2023-06-26T10:57:38;23.90;99.90
61400;DHT22;47269;48.182;-1.946;2023-06-26T11:00:14;23.50;99.90
61400;DHT22;47269;48.182;-1.946;2023-06-26T11:02:50;23.40;99.90
61400;DHT22;47269;48.182;-1.946;2023-06-26T11:05:33;23.60;99.90
61400;DHT22;47269;48.182;-1.946;2023-06-26T11:08:07;24.00;99.90
61400;DHT22;47269;48.182;-1.946;2023-06-26T11:10:53;23.70;99.90
61400;DHT22;47269;48.182;-1.946;2023-06-26T11:13:19;23.90;99.90
61400;DHT22;47269;48.182;-1.946;2023-06-26T11:15:49;24.80;99.90
61400;DHT22;47269;48.182;-1.946;2023-06-26T11:18:15;24.30;99.90
61400;DHT22;47269;48.182;-1.946;2023-06-26T11:20:41;24.70;99.90
61400;DHT22;47269;48.182;-1.946;2023-06-26T11:23:11;25.00;99.90
61400;DHT22;47269;48.182;-1.946;2023-06-26T11:25:38;24.10;99.90
61400;DHT22;47269;48.182;-1.946;2023-06-26T11:28:04;23.90;99.90
61400;DHT22;47269;48.182;-1.946;2023-06-26T11:30:31;23.90;99.90
61400;DHT22;47269;48.182;-1.946;2023-06-26T11:33:09;24.60;99.90
61400;DHT22;47269;48.182;-1.946;2023-06-26T11:35:34;24.90;99.90
61400;DHT22;47269;48.182;-1.946;2023-06-26T11:38:01;24.60;99.90
61400;DHT22;47269;48.182;-1.946;2023-06-26T11:40:33;25.40;99.90
61400;DHT22;47269;48.182;-1.946;2023-06-26T11:43:03;25.00;99.90
61400;DHT22;47269;48.182;-1.946;2023-06-26T11:45:31;25.30;99.90
61400;DHT22;47269;48.182;-1.946;2023-06-26T11:47:58;25.00;99.90
61400;DHT22;47269;48.182;-1.946;2023-06-26T11:50:25;25.00;99.90
61400;DHT22;47269;48.182;-1.946;2023-06-26T11:52:59;24.70;99.90
61400;DHT22;47269;48.182;-1.946;2023-06-26T11:55:27;24.80;99.90
61400;DHT22;47269;48.182;-1.946;2023-06-26T11:57:54;24.40;99.90
61400;DHT22;47269;48.182;-1.946;2023-06-26T12:00:21;23.90;99.90
61400;DHT22;47269;48.182;-1.946;2023-06-26T12:02:47;24.30;99.90
61400;DHT22;47269;48.182;-1.946;2023-06-26T12:05:16;25.10;99.90
61400;DHT22;47269;48.182;-1.946;2023-06-26T12:07:48;24.70;99.90
61400;DHT22;47269;48.182;-1.946;2023-06-26T12:10:15;25.30;99.90
61400;DHT22;47269;48.182;-1.946;2023-06-26T12:12:42;25.30;99.90
61400;DHT22;47269;48.182;-1.946;2023-06-26T12:15:09;25.70;99.90
61400;DHT22;47269;48.182;-1.946;2023-06-26T12:17:38;26.10;99.90
61400;DHT22;47269;48.182;-1.946;2023-06-26T12:20:17;26.10;99.90
61400;DHT22;47269;48.182;-1.946;2023-06-26T12:22:45;25.30;99.90
61400;DHT22;47269;48.182;-1.946;2023-06-26T12:25:12;25.00;99.90
61400;DHT22;47269;48.182;-1.946;2023-06-26T12:27:38;25.90;99.90
61400;DHT22;47269;48.182;-1.946;2023-06-26T12:30:04;26.50;99.90
61400;DHT22;47269;48.182;-1.946;2023-06-26T12:32:31;25.60;99.90
61400;DHT22;47269;48.182;-1.946;2023-06-26T12:34:57;25.50;99.90
61400;DHT22;47269;48.182;-1.946;2023-06-26T12:37:23;25.60;99.90
61400;DHT22;47269;48.182;-1.946;2023-06-26T12:39:51;25.70;99.90
61400;DHT22;47269;48.182;-1.946;2023-06-26T12:42:22;25.80;99.90
61400;DHT22;47269;48.182;-1.946;2023-06-26T12:44:49;26.20;99.90
61400;DHT22;47269;48.182;-1.946;2023-06-26T12:47:15;26.40;99.90
61400;DHT22;47269;48.182;-1.946;2023-06-26T12:49:43;26.90;99.90
61400;DHT22;47269;48.182;-1.946;2023-06-26T12:52:12;27.00;99.90
61400;DHT22;47269;48.182;-1.946;2023-06-26T12:54:40;26.00;99.90
61400;DHT22;47269;48.182;-1.946;2023-06-26T12:57:06;25.80;99.90
61400;DHT22;47269;48.182;-1.946;2023-06-26T12:59:33;25.40;99.90
61400;DHT22;47269;48.182;-1.946;2023-06-26T13:02:00;25.90;99.90
61400;DHT22;47269;48.182;-1.946;2023-06-26T13:04:26;26.30;99.90
61400;DHT22;47269;48.182;-1.946;2023-06-26T13:06:52;26.60;99.90
61400;DHT22;47269;48.182;-1.946;2023-06-26T13:09:20;25.50;99.90
61400;DHT22;47269;48.182;-1.946;2023-06-26T13:11:46;25.30;99.90
61400;DHT22;47269;48.182;-1.946;2023-06-26T13:14:12;25.10;99.90
61400;DHT22;47269;48.182;-1.946;2023-06-26T13:16:38;25.90;99.90
61400;DHT22;47269;48.182;-1.946;2023-06-26T13:19:03;26.20;99.90
61400;DHT22;47269;48.182;-1.946;2023-06-26T13:21:29;26.30;99.90
61400;DHT22;47269;48.182;-1.946;2023-06-26T13:23:55;25.80;99.90
61400;DHT22;47269;48.182;-1.946;2023-06-26T13:26:22;25.60;99.90
61400;DHT22;47269;48.182;-1.946;2023-06-26T13:28:48;25.30;99.90
61400;DHT22;47269;48.182;-1.946;2023-06-26T13:31:15;25.50;99.90
61400;DHT22;47269;48.182;-1.946;2023-06-26T13:33:40;25.60;99.90
61400;DHT22;47269;48.182;-1.946;2023-06-26T13:36:06;25.60;99.90
61400;DHT22;47269;48.182;-1.946;2023-06-26T13:38:35;25.00;99.90
61400;DHT22;47269;48.182;-1.946;2023-06-26T13:41:01;25.60;99.90
61400;DHT22;47269;48.182;-1.946;2023-06-26T13:43:28;25.50;99.90
61400;DHT22;47269;48.182;-1.946;2023-06-26T13:45:54;26.20;99.90
61400;DHT22;47269;48.182;-1.946;2023-06-26T13:48:20;25.90;99.90
61400;DHT22;47269;48.182;-1.946;2023-06-26T13:50:47;25.70;99.90
61400;DHT22;47269;48.182;-1.946;2023-06-26T13:53:13;25.60;99.90
61400;DHT22;47269;48.182;-1.946;2023-06-26T13:55:40;25.70;99.90
61400;DHT22;47269;48.182;-1.946;2023-06-26T13:58:06;26.00;99.90
61400;DHT22;47269;48.182;-1.946;2023-06-26T14:00:32;26.20;99.90
61400;DHT22;47269;48.182;-1.946;2023-06-26T14:03:00;25.80;99.90
61400;DHT22;47269;48.182;-1.946;2023-06-26T14:05:26;26.50;99.90
61400;DHT22;47269;48.182;-1.946;2023-06-26T14:07:51;26.90;99.90
61400;DHT22;47269;48.182;-1.946;2023-06-26T14:10:19;26.50;99.90
61400;DHT22;47269;48.182;-1.946;2023-06-26T14:12:45;26.00;99.90
61400;DHT22;47269;48.182;-1.946;2023-06-26T14:15:10;26.20;99.90
61400;DHT22;47269;48.182;-1.946;2023-06-26T14:17:36;25.80;99.90
61400;DHT22;47269;48.182;-1.946;2023-06-26T14:20:06;25.60;99.90
61400;DHT22;47269;48.182;-1.946;2023-06-26T14:22:35;25.50;99.90
61400;DHT22;47269;48.182;-1.946;2023-06-26T14:25:01;25.30;99.90
61400;DHT22;47269;48.182;-1.946;2023-06-26T14:27:27;25.80;99.90
61400;DHT22;47269;48.182;-1.946;2023-06-26T14:29:52;26.40;99.90
61400;DHT22;47269;48.182;-1.946;2023-06-26T14:32:18;26.40;99.90
61400;DHT22;47269;48.182;-1.946;2023-06-26T14:34:44;25.60;99.90
61400;DHT22;47269;48.182;-1.946;2023-06-26T14:37:09;25.60;99.90
61400;DHT22;47269;48.182;-1.946;2023-06-26T14:39:35;25.20;99.90
61400;DHT22;47269;48.182;-1.946;2023-06-26T14:42:01;25.40;99.90
61400;DHT22;47269;48.182;-1.946;2023-06-26T14:44:26;24.80;99.90
61400;DHT22;47269;48.182;-1.946;2023-06-26T14:46:52;24.50;99.90
61400;DHT22;47269;48.182;-1.946;2023-06-26T14:49:18;24.50;99.90
61400;DHT22;47269;48.182;-1.946;2023-06-26T14:51:44;24.70;99.90
61400;DHT22;47269;48.182;-1.946;2023-06-26T14:54:10;24.50;99.90
61400;DHT22;47269;48.182;-1.946;2023-06-26T14:56:35;24.50;99.90
61400;DHT22;47269;48.182;-1.946;2023-06-26T14:59:01;24.30;99.90
61400;DHT22;47269;48.182;-1.946;2023-06-26T15:01:27;24.30;99.90
61400;DHT22;47269;48.182;-1.946;2023-06-26T15:03:52;24.20;99.90
61400;DHT22;47269;48.182;-1.946;2023-06-26T15:06:18;24.00;99.90
61400;DHT22;47269;48.182;-1.946;2023-06-26T15:08:44;24.30;99.90
61400;DHT22;47269;48.182;-1.946;2023-06-26T15:11:10;24.40;99.90
61400;DHT22;47269;48.182;-1.946;2023-06-26T15:13:35;24.30;99.90
61400;DHT22;47269;48.182;-1.946;2023-06-26T15:16:01;24.60;99.90
61400;DHT22;47269;48.182;-1.946;2023-06-26T15:18:26;24.40;99.90
61400;DHT22;47269;48.182;-1.946;2023-06-26T15:20:52;24.30;99.90
61400;DHT22;47269;48.182;-1.946;2023-06-26T15:23:18;24.10;99.90
61400;DHT22;47269;48.182;-1.946;2023-06-26T15:25:43;24.40;99.90
61400;DHT22;47269;48.182;-1.946;2023-06-26T15:28:09;23.90;99.90
61400;DHT22;47269;48.182;-1.946;2023-06-26T15:30:35;23.60;99.90
61400;DHT22;47269;48.182;-1.946;2023-06-26T15:33:00;23.60;99.90
61400;DHT22;47269;48.182;-1.946;2023-06-26T15:35:26;23.80;99.90
61400;DHT22;47269;48.182;-1.946;2023-06-26T15:37:52;24.00;99.90
61400;DHT22;47269;48.182;-1.946;2023-06-26T15:40:17;24.00;99.90
61400;DHT22;47269;48.182;-1.946;2023-06-26T15:42:50;24.10;99.90
61400;DHT22;47269;48.182;-1.946;2023-06-26T15:45:17;24.10;99.90
61400;DHT22;47269;48.182;-1.946;2023-06-26T15:47:50;23.90;99.90
61400;DHT22;47269;48.182;-1.946;2023-06-26T15:50:16;23.90;99.90
61400;DHT22;47269;48.182;-1.946;2023-06-26T15:52:42;23.60;99.90
61400;DHT22;47269;48.182;-1.946;2023-06-26T15:55:08;23.10;99.90
61400;DHT22;47269;48.182;-1.946;2023-06-26T15:57:35;23.40;99.90
61400;DHT22;47269;48.182;-1.946;2023-06-26T16:00:02;23.40;99.90
61400;DHT22;47269;48.182;-1.946;2023-06-26T16:02:29;23.10;99.90
61400;DHT22;47269;48.182;-1.946;2023-06-26T16:04:54;22.90;99.90
61400;DHT22;47269;48.182;-1.946;2023-06-26T16:07:20;23.00;99.90
61400;DHT22;47269;48.182;-1.946;2023-06-26T16:09:46;22.90;99.90
61400;DHT22;47269;48.182;-1.946;2023-06-26T16:12:11;23.00;99.90
61400;DHT22;47269;48.182;-1.946;2023-06-26T16:14:37;22.80;99.90
61400;DHT22;47269;48.182;-1.946;2023-06-26T16:17:03;22.80;99.90
61400;DHT22;47269;48.182;-1.946;2023-06-26T16:19:29;22.90;99.90
61400;DHT22;47269;48.182;-1.946;2023-06-26T16:21:55;22.80;99.90
61400;DHT22;47269;48.182;-1.946;2023-06-26T16:24:21;22.90;99.90
61400;DHT22;47269;48.182;-1.946;2023-06-26T16:26:46;23.00;99.90
61400;DHT22;47269;48.182;-1.946;2023-06-26T16:29:12;22.80;99.90
61400;DHT22;47269;48.182;-1.946;2023-06-26T16:31:38;22.70;99.90
61400;DHT22;47269;48.182;-1.946;2023-06-26T16:34:04;22.90;99.90
61400;DHT22;47269;48.182;-1.946;2023-06-26T16:36:30;22.70;99.90
61400;DHT22;47269;48.182;-1.946;2023-06-26T16:38:55;22.70;99.90
61400;DHT22;47269;48.182;-1.946;2023-06-26T16:41:21;22.60;99.90
61400;DHT22;47269;48.182;-1.946;2023-06-26T16:43:49;22.50;99.90
61400;DHT22;47269;48.182;-1.946;2023-06-26T16:46:15;22.60;99.90
61400;DHT22;47269;48.182;-1.946;2023-06-26T16:48:41;22.60;99.90
61400;DHT22;47269;48.182;-1.946;2023-06-26T16:51:06;22.70;99.90
61400;DHT22;47269;48.182;-1.946;2023-06-26T16:53:32;22.90;99.90
61400;DHT22;47269;48.182;-1.946;2023-06-26T16:55:58;22.50;99.90
61400;DHT22;47269;48.182;-1.946;2023-06-26T16:58:23;22.60;99.90
61400;DHT22;47269;48.182;-1.946;2023-06-26T17:00:49;22.70;99.90
61400;DHT22;47269;48.182;-1.946;2023-06-26T17:03:16;22.40;99.90
61400;DHT22;47269;48.182;-1.946;2023-06-26T17:05:42;22.30;99.90
61400;DHT22;47269;48.182;-1.946;2023-06-26T17:08:08;22.20;99.90
61400;DHT22;47269;48.182;-1.946;2023-06-26T17:10:36;22.30;99.90
61400;DHT22;47269;48.182;-1.946;2023-06-26T17:13:01;22.20;99.90
61400;DHT22;47269;48.182;-1.946;2023-06-26T17:15:27;22.00;99.90
61400;DHT22;47269;48.182;-1.946;2023-06-26T17:17:53;22.10;99.90
61400;DHT22;47269;48.182;-1.946;2023-06-26T17:20:19;22.20;99.90
61400;DHT22;47269;48.182;-1.946;2023-06-26T17:22:45;22.20;99.90
61400;DHT22;47269;48.182;-1.946;2023-06-26T17:25:13;22.20;99.90
61400;DHT22;47269;48.182;-1.946;2023-06-26T17:27:39;21.90;99.90
61400;DHT22;47269;48.182;-1.946;2023-06-26T17:30:06;21.80;99.90
61400;DHT22;47269;48.182;-1.946;2023-06-26T17:32:32;21.80;99.90
61400;DHT22;47269;48.182;-1.946;2023-06-26T17:34:58;21.80;99.90
61400;DHT22;47269;48.182;-1.946;2023-06-26T17:37:24;21.60;99.90
61400;DHT22;47269;48.182;-1.946;2023-06-26T17:39:52;21.50;99.90
61400;DHT22;47269;48.182;-1.946;2023-06-26T17:42:20;21.40;99.90
61400;DHT22;47269;48.182;-1.946;2023-06-26T17:44:46;21.50;99.90
61400;DHT22;47269;48.182;-1.946;2023-06-26T17:47:12;21.20;99.90
61400;DHT22;47269;48.182;-1.946;2023-06-26T17:49:38;21.00;99.90
61400;DHT22;47269;48.182;-1.946;2023-06-26T17:52:05;21.10;99.90
61400;DHT22;47269;48.182;-1.946;2023-06-26T17:54:31;20.90;99.90
61400;DHT22;47269;48.182;-1.946;2023-06-26T17:56:56;20.70;99.90
61400;DHT22;47269;48.182;-1.946;2023-06-26T17:59:22;20.70;99.90
61400;DHT22;47269;48.182;-1.946;2023-06-26T18:01:48;20.60;99.90
61400;DHT22;47269;48.182;-1.946;2023-06-26T18:04:13;20.60;99.90
61400;DHT22;47269;48.182;-1.946;2023-06-26T18:06:39;20.60;99.90
61400;DHT22;47269;48.182;-1.946;2023-06-26T18:09:05;20.60;99.90
61400;DHT22;47269;48.182;-1.946;2023-06-26T18:11:35;20.50;99.90
61400;DHT22;47269;48.182;-1.946;2023-06-26T18:14:01;20.30;99.90
61400;DHT22;47269;48.182;-1.946;2023-06-26T18:16:27;20.40;99.90
61400;DHT22;47269;48.182;-1.946;2023-06-26T18:18:54;20.40;99.90
61400;DHT22;47269;48.182;-1.946;2023-06-26T18:21:20;20.40;99.90
61400;DHT22;47269;48.182;-1.946;2023-06-26T18:23:46;20.30;99.90
61400;DHT22;47269;48.182;-1.946;2023-06-26T18:26:17;20.20;99.90
61400;DHT22;47269;48.182;-1.946;2023-06-26T18:28:44;20.20;99.90
61400;DHT22;47269;48.182;-1.946;2023-06-26T18:31:10;20.20;99.90
61400;DHT22;47269;48.182;-1.946;2023-06-26T18:33:36;20.10;99.90
61400;DHT22;47269;48.182;-1.946;2023-06-26T18:36:03;20.20;99.90
61400;DHT22;47269;48.182;-1.946;2023-06-26T18:38:29;20.10;99.90
61400;DHT22;47269;48.182;-1.946;2023-06-26T18:40:55;20.10;99.90
61400;DHT22;47269;48.182;-1.946;2023-06-26T18:43:22;20.00;99.90
61400;DHT22;47269;48.182;-1.946;2023-06-26T18:45:51;19.90;99.90
61400;DHT22;47269;48.182;-1.946;2023-06-26T18:48:17;19.90;99.90
61400;DHT22;47269;48.182;-1.946;2023-06-26T18:50:43;19.80;99.90
61400;DHT22;47269;48.182;-1.946;2023-06-26T18:53:09;19.70;99.90
61400;DHT22;47269;48.182;-1.946;2023-06-26T18:55:35;19.70;99.90
61400;DHT22;47269;48.182;-1.946;2023-06-26T18:58:02;19.60;99.90
61400;DHT22;47269;48.182;-1.946;2023-06-26T19:00:29;19.60;99.90
61400;DHT22;47269;48.182;-1.946;2023-06-26T19:02:57;19.50;99.90
61400;DHT22;47269;48.182;-1.946;2023-06-26T19:05:23;19.50;99.90
61400;DHT22;47269;48.182;-1.946;2023-06-26T19:07:49;19.30;99.90
61400;DHT22;47269;48.182;-1.946;2023-06-26T19:10:16;19.30;99.90
61400;DHT22;47269;48.182;-1.946;2023-06-26T19:12:46;19.40;99.90
61400;DHT22;47269;48.182;-1.946;2023-06-26T19:15:17;19.30;99.90
61400;DHT22;47269;48.182;-1.946;2023-06-26T19:17:43;19.20;99.90
61400;DHT22;47269;48.182;-1.946;2023-06-26T19:20:10;19.20;99.90
61400;DHT22;47269;48.182;-1.946;2023-06-26T19:22:36;19.20;99.90
61400;DHT22;47269;48.182;-1.946;2023-06-26T19:25:02;19.20;99.90
61400;DHT22;47269;48.182;-1.946;2023-06-26T19:27:28;19.10;99.90
61400;DHT22;47269;48.182;-1.946;2023-06-26T19:29:55;19.10;99.90
61400;DHT22;47269;48.182;-1.946;2023-06-26T19:32:21;19.10;99.90
61400;DHT22;47269;48.182;-1.946;2023-06-26T19:34:47;19.00;99.90
61400;DHT22;47269;48.182;-1.946;2023-06-26T19:37:12;18.90;99.90
61400;DHT22;47269;48.182;-1.946;2023-06-26T19:39:38;18.90;99.90
61400;DHT22;47269;48.182;-1.946;2023-06-26T19:42:04;18.90;99.90
61400;DHT22;47269;48.182;-1.946;2023-06-26T19:44:30;18.90;99.90
61400;DHT22;47269;48.182;-1.946;2023-06-26T19:46:56;18.70;99.90
61400;DHT22;47269;48.182;-1.946;2023-06-26T19:49:22;18.70;99.90
61400;DHT22;47269;48.182;-1.946;2023-06-26T19:51:49;18.60;99.90
61400;DHT22;47269;48.182;-1.946;2023-06-26T19:54:14;18.50;99.90
61400;DHT22;47269;48.182;-1.946;2023-06-26T19:56:41;18.40;99.90
61400;DHT22;47269;48.182;-1.946;2023-06-26T19:59:07;18.50;99.90
61400;DHT22;47269;48.182;-1.946;2023-06-26T20:01:32;18.40;99.90
61400;DHT22;47269;48.182;-1.946;2023-06-26T20:03:58;18.50;99.90
61400;DHT22;47269;48.182;-1.946;2023-06-26T20:06:35;18.60;99.90
61400;DHT22;47269;48.182;-1.946;2023-06-26T20:09:00;18.40;99.90
61400;DHT22;47269;48.182;-1.946;2023-06-26T20:11:26;18.50;99.90
61400;DHT22;47269;48.182;-1.946;2023-06-26T20:13:52;18.40;99.90
61400;DHT22;47269;48.182;-1.946;2023-06-26T20:16:17;18.40;99.90
61400;DHT22;47269;48.182;-1.946;2023-06-26T20:18:43;18.40;99.90
61400;DHT22;47269;48.182;-1.946;2023-06-26T20:21:08;18.30;99.90
61400;DHT22;47269;48.182;-1.946;2023-06-26T20:23:34;18.40;99.90
61400;DHT22;47269;48.182;-1.946;2023-06-26T20:26:00;18.40;99.90
61400;DHT22;47269;48.182;-1.946;2023-06-26T20:28:25;18.30;99.90
61400;DHT22;47269;48.182;-1.946;2023-06-26T20:30:51;18.40;99.90
61400;DHT22;47269;48.182;-1.946;2023-06-26T20:33:17;18.10;99.90
61400;DHT22;47269;48.182;-1.946;2023-06-26T20:35:42;18.20;99.90
61400;DHT22;47269;48.182;-1.946;2023-06-26T20:38:08;18.10;99.90
61400;DHT22;47269;48.182;-1.946;2023-06-26T20:40:34;18.30;99.90
61400;DHT22;47269;48.182;-1.946;2023-06-26T20:43:00;17.90;99.90
61400;DHT22;47269;48.182;-1.946;2023-06-26T20:45:26;17.90;99.90
61400;DHT22;47269;48.182;-1.946;2023-06-26T20:47:52;17.80;99.90
61400;DHT22;47269;48.182;-1.946;2023-06-26T20:50:18;17.80;99.90
61400;DHT22;47269;48.182;-1.946;2023-06-26T20:52:44;17.70;99.90
61400;DHT22;47269;48.182;-1.946;2023-06-26T20:55:10;17.60;99.90
61400;DHT22;47269;48.182;-1.946;2023-06-26T20:57:36;17.60;99.90
61400;DHT22;47269;48.182;-1.946;2023-06-26T21:00:02;17.60;99.90
61400;DHT22;47269;48.182;-1.946;2023-06-26T21:02:28;17.60;99.90
61400;DHT22;47269;48.182;-1.946;2023-06-26T21:04:54;17.70;99.90
61400;DHT22;47269;48.182;-1.946;2023-06-26T21:07:20;17.50;99.90
61400;DHT22;47269;48.182;-1.946;2023-06-26T21:09:46;17.50;99.90
61400;DHT22;47269;48.182;-1.946;2023-06-26T21:12:13;17.40;99.90
61400;DHT22;47269;48.182;-1.946;2023-06-26T21:14:39;17.40;99.90